createdAt,value
2022-09-25T00:00:31.137Z,23.40
2022-09-25T00:03:06.732Z,23.40
2022-09-25T00:05:40.541Z,23.20
2022-09-25T00:08:13.171Z,23.10
2022-09-25T00:10:50.856Z,22.90
2022-09-25T00:13:23.703Z,22.80
2022-09-25T00:15:57.621Z,22.60
2022-09-25T00:18:47.945Z,22.50
2022-09-25T00:21:20.257Z,22.40
2022-09-25T00:23:52.136Z,22.30
2022-09-25T00:26:23.329Z,22.20
2022-09-25T00:28:54.425Z,22.10
2022-09-25T00:31:28.242Z,22.10
2022-09-25T00:34:04.574Z,22.10
2022-09-25T00:36:36.584Z,22.00
2022-09-25T00:39:08.857Z,22.00
2022-09-25T00:41:42.225Z,22.00
2022-09-25T00:44:57.635Z,21.90
2022-09-25T00:47:51.709Z,21.90
2022-09-25T00:50:32.243Z,21.90
2022-09-25T00:53:08.690Z,21.70
2022-09-25T00:55:41.991Z,21.60
2022-09-25T00:58:15.513Z,21.50
2022-09-25T01:00:47.971Z,21.40
2022-09-25T01:03:21.512Z,21.40
2022-09-25T01:05:56.152Z,21.30
2022-09-25T01:08:30.342Z,21.20
2022-09-25T01:11:02.376Z,21.10
2022-09-25T01:13:34.751Z,21.10
2022-09-25T01:16:12.720Z,21.00
2022-09-25T01:18:55.458Z,20.90
2022-09-25T01:21:37.171Z,20.90
2022-09-25T01:24:53.262Z,20.80
2022-09-25T01:27:52.700Z,20.70
2022-09-25T01:30:27.009Z,20.60
2022-09-25T01:33:06.573Z,20.50
2022-09-25T01:35:45.896Z,20.40
2022-09-25T01:38:27.880Z,20.20
2022-09-25T01:41:05.753Z,20.10
2022-09-25T01:43:40.994Z,20.00
2022-09-25T01:46:20.301Z,19.90
2022-09-25T01:48:55.929Z,19.80
2022-09-25T01:51:30.747Z,19.70
2022-09-25T01:54:09.251Z,19.60
2022-09-25T01:56:45.571Z,19.40
2022-09-25T01:59:21.930Z,19.40
2022-09-25T02:01:57.819Z,19.30
2022-09-25T02:04:37.123Z,19.20
2022-09-25T02:07:12.301Z,19.10
2022-09-25T02:09:48.120Z,19.00
2022-09-25T02:12:23.207Z,19.00
2022-09-25T02:14:58.079Z,18.90
2022-09-25T02:17:53.656Z,18.90
2022-09-25T02:20:37.789Z,18.80
2022-09-25T02:23:18.016Z,18.70
2022-09-25T02:25:55.925Z,18.60
2022-09-25T02:28:27.619Z,18.50
2022-09-25T02:31:02.314Z,18.40
2022-09-25T02:33:40.426Z,18.40
2022-09-25T02:36:21.517Z,18.30
2022-09-25T02:38:57.539Z,18.10
2022-09-25T02:41:45.018Z,18.10
2022-09-25T02:44:30.680Z,17.90
2022-09-25T02:52:37.357Z,17.70
2022-09-25T02:55:14.430Z,17.60
2022-09-25T02:57:55.134Z,17.60
2022-09-25T03:00:27.690Z,17.50
2022-09-25T03:03:01.464Z,17.60
2022-09-25T03:05:34.076Z,17.50
2022-09-25T03:08:25.199Z,17.50
2022-09-25T03:10:57.147Z,17.40
2022-09-25T03:13:32.936Z,17.40
2022-09-25T03:16:07.542Z,17.40
2022-09-25T03:18:39.486Z,17.20
2022-09-25T03:21:11.424Z,17.30
2022-09-25T03:23:45.670Z,17.20
2022-09-25T03:26:17.269Z,17.20
2022-09-25T03:28:51.294Z,17.30
2022-09-25T03:31:22.477Z,17.30
2022-09-25T03:33:53.874Z,17.20
2022-09-25T03:36:26.419Z,17.20
2022-09-25T03:39:01.826Z,17.20
2022-09-25T03:41:36.102Z,17.30
2022-09-25T03:44:08.491Z,17.30
2022-09-25T03:46:40.678Z,17.20
2022-09-25T03:49:12.333Z,17.30
2022-09-25T03:51:45.264Z,17.20
2022-09-25T03:54:21.785Z,17.20
2022-09-25T03:56:54.229Z,17.20
2022-09-25T03:59:25.666Z,17.10
2022-09-25T04:01:58.399Z,17.10
2022-09-25T04:04:30.989Z,17.20
2022-09-25T04:07:03.378Z,17.10
2022-09-25T04:09:39.040Z,17.10
2022-09-25T04:12:10.005Z,17.10
2022-09-25T04:14:43.161Z,17.00
2022-09-25T04:17:14.415Z,17.00
2022-09-25T04:19:45.906Z,16.90
2022-09-25T04:22:17.221Z,16.90
2022-09-25T04:24:54.365Z,16.90
2022-09-25T04:27:26.761Z,16.80
2022-09-25T04:29:58.675Z,16.70
2022-09-25T04:32:46.370Z,16.70
2022-09-25T04:35:18.695Z,16.70
2022-09-25T04:37:50.604Z,16.60
2022-09-25T04:40:24.901Z,16.50
2022-09-25T04:43:00.512Z,16.50
2022-09-25T04:45:33.909Z,16.50
2022-09-25T04:48:06.620Z,16.50
2022-09-25T04:50:38.905Z,16.50
2022-09-25T04:53:10.364Z,16.50
2022-09-25T04:55:44.314Z,16.50
2022-09-25T04:58:17.298Z,16.40
2022-09-25T05:00:49.237Z,16.40
2022-09-25T05:03:20.937Z,16.30
2022-09-25T05:05:53.801Z,16.30
2022-09-25T05:08:27.582Z,16.30
2022-09-25T05:11:01.471Z,16.20
2022-09-25T05:13:32.509Z,16.10
2022-09-25T05:16:04.062Z,16.10
2022-09-25T05:18:35.595Z,16.00
2022-09-25T05:21:08.660Z,15.90
2022-09-25T05:23:39.961Z,15.90
2022-09-25T05:26:14.753Z,15.90
2022-09-25T05:28:47.262Z,15.90
2022-09-25T05:31:19.883Z,15.80
2022-09-25T05:33:52.756Z,15.80
2022-09-25T05:36:24.389Z,15.70
2022-09-25T05:38:58.053Z,15.70
2022-09-25T05:41:32.093Z,15.60
2022-09-25T05:44:04.574Z,15.60
2022-09-25T05:46:37.447Z,15.50
2022-09-25T05:49:09.405Z,15.50
2022-09-25T05:51:44.023Z,15.50
2022-09-25T05:54:15.301Z,15.40
2022-09-25T05:56:49.230Z,15.40
2022-09-25T05:59:20.718Z,15.40
2022-09-25T06:01:52.656Z,15.30
2022-09-25T06:04:24.000Z,15.30
2022-09-25T06:06:55.649Z,15.30
2022-09-25T06:09:26.839Z,15.30
2022-09-25T06:12:02.983Z,15.20
2022-09-25T06:14:34.095Z,15.20
2022-09-25T06:17:05.901Z,15.20
2022-09-25T06:19:38.144Z,15.10
2022-09-25T06:22:09.458Z,15.10
2022-09-25T06:24:43.524Z,15.10
2022-09-25T06:27:17.447Z,15.10
2022-09-25T06:29:50.972Z,15.10
2022-09-25T06:32:24.260Z,15.10
2022-09-25T06:34:55.728Z,15.00
2022-09-25T06:37:26.656Z,15.00
2022-09-25T06:39:59.614Z,15.00
2022-09-25T06:42:36.576Z,15.00
2022-09-25T06:45:08.197Z,15.00
2022-09-25T06:47:39.140Z,15.00
2022-09-25T06:50:14.072Z,14.90
2022-09-25T06:52:46.512Z,14.90
2022-09-25T06:55:20.787Z,14.90
2022-09-25T06:57:56.014Z,14.90
2022-09-25T07:00:27.420Z,14.80
2022-09-25T07:03:17.308Z,14.80
2022-09-25T07:05:49.540Z,14.80
2022-09-25T07:08:22.868Z,14.80
2022-09-25T07:10:55.516Z,14.80
2022-09-25T07:13:30.956Z,14.80
2022-09-25T07:16:04.914Z,14.80
2022-09-25T07:18:36.589Z,14.80
2022-09-25T07:21:10.175Z,14.80
2022-09-25T07:23:43.912Z,14.70
2022-09-25T07:26:17.340Z,14.70
2022-09-25T07:29:04.689Z,14.70
2022-09-25T07:31:38.809Z,14.70
2022-09-25T07:34:13.194Z,14.70
2022-09-25T07:36:46.360Z,14.70
2022-09-25T07:39:19.046Z,14.70
2022-09-25T07:41:50.139Z,14.70
2022-09-25T07:44:29.022Z,14.70
2022-09-25T07:47:02.278Z,14.60
2022-09-25T07:49:34.958Z,14.60
2022-09-25T07:52:06.931Z,14.60
2022-09-25T07:54:41.160Z,14.60
2022-09-25T07:57:14.102Z,14.60
2022-09-25T07:59:47.967Z,14.60
2022-09-25T08:02:19.569Z,14.50
2022-09-25T08:04:51.663Z,14.50
2022-09-25T08:07:23.162Z,14.50
2022-09-25T08:09:54.278Z,14.50
2022-09-25T08:12:26.808Z,14.50
2022-09-25T08:15:01.116Z,14.60
2022-09-25T08:17:35.646Z,14.60
2022-09-25T08:20:08.223Z,14.60
2022-09-25T08:22:40.090Z,14.60
2022-09-25T08:25:12.254Z,14.60
2022-09-25T08:27:44.287Z,14.50
2022-09-25T08:30:20.380Z,14.60
2022-09-25T08:32:52.417Z,14.60
2022-09-25T08:35:24.262Z,14.60
2022-09-25T08:37:55.280Z,14.60
2022-09-25T08:40:32.997Z,14.50
2022-09-25T08:43:05.618Z,14.40
2022-09-25T08:46:00.027Z,14.40
2022-09-25T08:48:59.917Z,14.30
2022-09-25T08:51:32.412Z,14.30
2022-09-25T08:54:04.430Z,14.20
2022-09-25T08:56:38.953Z,14.20
2022-09-25T08:59:27.701Z,14.20
2022-09-25T09:02:05.395Z,14.20
2022-09-25T09:04:42.046Z,14.10
2022-09-25T09:07:28.439Z,14.10
2022-09-25T09:10:07.408Z,14.00
2022-09-25T09:12:46.353Z,14.00
2022-09-25T09:15:26.940Z,14.00
2022-09-25T09:18:02.507Z,13.90
2022-09-25T09:20:43.699Z,13.90
2022-09-25T09:23:23.116Z,13.80
2022-09-25T09:26:05.478Z,13.80
2022-09-25T09:29:02.169Z,13.80
2022-09-25T09:31:41.114Z,13.90
2022-09-25T09:34:53.068Z,13.90
2022-09-25T09:37:26.490Z,13.90
2022-09-25T09:40:16.021Z,13.90
2022-09-25T09:42:52.957Z,13.80
2022-09-25T09:45:31.273Z,13.70
2022-09-25T09:48:09.928Z,13.70
2022-09-25T09:50:52.390Z,13.60
2022-09-25T09:53:32.286Z,13.60
2022-09-25T09:56:09.242Z,13.50
2022-09-25T09:58:48.561Z,13.50
2022-09-25T10:04:18.984Z,13.50
2022-09-25T10:06:57.653Z,13.50
2022-09-25T10:09:30.531Z,13.50
2022-09-25T10:12:08.445Z,13.40
2022-09-25T10:14:44.356Z,13.40
2022-09-25T10:17:16.997Z,13.40
2022-09-25T10:19:59.425Z,13.30
2022-09-25T10:22:41.165Z,13.30
2022-09-25T10:25:12.791Z,13.30
2022-09-25T10:27:47.081Z,13.30
2022-09-25T10:30:33.981Z,13.20
2022-09-25T10:33:15.219Z,13.20
2022-09-25T10:35:47.949Z,13.20
2022-09-25T10:38:34.885Z,13.10
2022-09-25T10:41:10.328Z,13.10
2022-09-25T10:43:56.261Z,13.10
2022-09-25T10:46:49.055Z,13.10
2022-09-25T10:49:39.226Z,13.00
2022-09-25T10:52:13.302Z,13.00
2022-09-25T10:54:47.792Z,12.90
2022-09-25T10:57:27.849Z,12.90
2022-09-25T11:00:00.760Z,12.90
2022-09-25T11:02:39.230Z,12.90
2022-09-25T11:05:19.263Z,12.90
2022-09-25T11:07:53.434Z,12.80
2022-09-25T11:10:28.512Z,12.90
2022-09-25T11:13:00.845Z,12.80
2022-09-25T11:15:31.796Z,12.80
2022-09-25T11:18:04.464Z,12.80
2022-09-25T11:20:36.121Z,12.80
2022-09-25T11:23:22.989Z,12.80
2022-09-25T11:26:07.020Z,12.70
2022-09-25T11:28:45.365Z,12.70
2022-09-25T11:31:26.448Z,12.60
2022-09-25T11:34:08.890Z,12.60
2022-09-25T11:36:45.110Z,12.60
2022-09-25T11:39:41.129Z,12.60
2022-09-25T11:42:21.841Z,12.50
2022-09-25T11:45:03.873Z,12.60
2022-09-25T11:47:41.788Z,12.50
2022-09-25T11:50:18.843Z,12.50
2022-09-25T11:53:01.023Z,12.60
2022-09-25T11:55:56.718Z,12.50
2022-09-25T11:58:47.973Z,12.50
2022-09-25T12:01:29.679Z,12.50
2022-09-25T12:04:41.696Z,12.50
2022-09-25T12:07:34.892Z,12.50
2022-09-25T12:10:21.763Z,12.50
2022-09-25T12:13:02.695Z,12.50
2022-09-25T12:15:50.411Z,12.50
2022-09-25T12:18:37.227Z,12.50
2022-09-25T12:21:16.925Z,12.40
2022-09-25T12:23:55.734Z,12.40
2022-09-25T12:26:33.484Z,12.40
2022-09-25T12:29:21.167Z,12.30
2022-09-25T12:32:01.494Z,12.30
2022-09-25T12:34:47.318Z,12.30
2022-09-25T12:37:27.511Z,12.30
2022-09-25T12:40:05.139Z,12.30
2022-09-25T12:42:45.595Z,12.30
2022-09-25T12:45:24.249Z,12.20
2022-09-25T12:48:10.869Z,12.20
2022-09-25T12:50:49.768Z,12.20
2022-09-25T12:53:32.081Z,12.20
2022-09-25T12:56:13.232Z,12.10
2022-09-25T12:59:04.008Z,12.10
2022-09-25T13:01:46.907Z,12.10
2022-09-25T13:04:46.293Z,12.10
2022-09-25T13:07:23.538Z,12.10
2022-09-25T13:09:57.812Z,12.10
2022-09-25T13:12:36.747Z,12.10
2022-09-25T13:15:11.931Z,12.10
2022-09-25T13:17:44.012Z,12.10
2022-09-25T13:20:50.440Z,12.00
2022-09-25T13:23:30.457Z,12.00
2022-09-25T13:26:06.329Z,11.90
2022-09-25T13:28:41.792Z,12.00
2022-09-25T13:31:17.608Z,12.00
2022-09-25T13:33:53.111Z,12.00
2022-09-25T13:36:38.998Z,12.00
2022-09-25T13:39:36.159Z,11.90
2022-09-25T13:42:09.681Z,12.00
2022-09-25T13:44:53.653Z,11.90
2022-09-25T13:47:54.811Z,12.00
2022-09-25T13:50:38.886Z,12.00
2022-09-25T13:53:53.205Z,11.90
2022-09-25T13:56:29.763Z,11.90
2022-09-25T13:59:26.989Z,11.90
2022-09-25T14:02:25.613Z,11.90
2022-09-25T14:04:58.251Z,11.90
2022-09-25T14:07:32.844Z,11.90
2022-09-25T14:10:06.430Z,11.90
2022-09-25T14:12:45.529Z,11.90
2022-09-25T14:15:36.417Z,11.90
2022-09-25T14:18:12.492Z,11.90
2022-09-25T14:20:46.155Z,11.90
2022-09-25T14:23:21.962Z,11.90
2022-09-25T14:26:06.173Z,11.90
2022-09-25T14:28:46.757Z,11.90
2022-09-25T14:31:32.683Z,11.90
2022-09-25T14:34:30.986Z,11.90
2022-09-25T14:37:13.485Z,11.90
2022-09-25T14:39:55.512Z,11.90
2022-09-25T14:43:00.735Z,12.00
2022-09-25T14:45:49.958Z,12.00
2022-09-25T14:48:26.521Z,12.00
2022-09-25T14:51:01.129Z,12.00
2022-09-25T14:53:38.847Z,12.10
2022-09-25T14:56:16.387Z,12.10
2022-09-25T14:58:56.795Z,12.20
2022-09-25T15:01:31.145Z,12.20
2022-09-25T15:04:06.439Z,12.20
2022-09-25T15:06:40.113Z,12.30
2022-09-25T15:09:32.170Z,12.40
2022-09-25T15:12:11.459Z,12.40
2022-09-25T15:14:59.268Z,12.50
2022-09-25T15:17:30.203Z,12.50
2022-09-25T15:20:03.825Z,12.70
2022-09-25T15:22:40.389Z,12.80
2022-09-25T15:25:19.790Z,12.80
2022-09-25T15:27:51.960Z,12.90
2022-09-25T15:30:28.415Z,13.10
2022-09-25T15:33:01.015Z,13.10
2022-09-25T15:35:33.722Z,13.20
2022-09-25T15:38:14.695Z,13.30
2022-09-25T15:40:59.378Z,13.40
2022-09-25T15:43:32.457Z,13.50
2022-09-25T15:46:36.679Z,13.50
2022-09-25T15:49:10.272Z,13.50
2022-09-25T15:51:41.932Z,13.60
2022-09-25T15:54:37.820Z,13.60
2022-09-25T15:57:14.392Z,13.80
2022-09-25T16:00:05.078Z,13.80
2022-09-25T16:02:57.753Z,13.80
2022-09-25T16:05:34.391Z,13.80
2022-09-25T16:08:33.076Z,13.90
2022-09-25T16:11:18.295Z,14.00
2022-09-25T16:13:53.047Z,14.10
2022-09-25T16:16:30.758Z,14.10
2022-09-25T16:19:22.493Z,14.20
2022-09-25T16:21:54.125Z,14.20
2022-09-25T16:24:27.649Z,14.30
2022-09-25T16:27:00.682Z,14.40
2022-09-25T16:29:33.568Z,14.50
2022-09-25T16:32:07.652Z,14.60
2022-09-25T16:34:44.520Z,14.70
2022-09-25T16:37:30.918Z,14.80
2022-09-25T16:40:25.991Z,14.80
2022-09-25T16:42:59.798Z,15.00
2022-09-25T16:45:34.945Z,15.00
2022-09-25T16:48:33.892Z,15.10
2022-09-25T16:51:14.302Z,15.10
2022-09-25T16:53:50.164Z,15.20
2022-09-25T16:56:25.876Z,15.20
2022-09-25T16:58:57.665Z,15.30
2022-09-25T17:01:30.661Z,15.30
2022-09-25T17:04:02.166Z,15.30
2022-09-25T17:06:43.030Z,15.40
2022-09-25T17:09:15.901Z,15.60
2022-09-25T17:11:50.823Z,15.60
2022-09-25T17:14:26.669Z,15.80
2022-09-25T17:16:59.969Z,15.80
2022-09-25T17:19:31.772Z,15.90
2022-09-25T17:22:04.858Z,15.90
2022-09-25T17:24:35.729Z,16.10
2022-09-25T17:27:13.240Z,16.20
2022-09-25T17:29:44.595Z,16.30
2022-09-25T17:32:18.450Z,16.40
2022-09-25T17:34:51.205Z,16.60
2022-09-25T17:37:25.146Z,16.60
2022-09-25T17:39:56.712Z,16.80
2022-09-25T17:42:28.706Z,16.90
2022-09-25T17:45:00.202Z,17.00
2022-09-25T17:47:32.832Z,17.10
2022-09-25T17:50:04.671Z,17.10
2022-09-25T17:52:37.730Z,17.20
2022-09-25T17:55:18.242Z,17.30
2022-09-25T17:57:49.655Z,17.50
2022-09-25T18:00:21.570Z,17.60
2022-09-25T18:02:53.978Z,17.70
2022-09-25T18:05:26.805Z,17.80
2022-09-25T18:07:59.952Z,17.90
2022-09-25T18:10:33.764Z,17.90
2022-09-25T18:13:05.142Z,18.10
2022-09-25T18:15:38.929Z,18.30
2022-09-25T18:18:10.048Z,18.30
2022-09-25T18:20:57.201Z,18.30
2022-09-25T18:23:34.890Z,18.40
2022-09-25T18:26:09.103Z,18.50
2022-09-25T18:28:40.799Z,18.60
2022-09-25T18:31:19.931Z,18.70
2022-09-25T18:33:51.388Z,18.90
2022-09-25T18:36:22.687Z,19.00
2022-09-25T18:38:56.618Z,19.10
2022-09-25T18:41:28.999Z,19.30
2022-09-25T18:44:01.830Z,19.30
2022-09-25T18:46:33.399Z,19.40
2022-09-25T18:49:05.805Z,19.50
2022-09-25T18:51:38.447Z,19.60
2022-09-25T18:54:15.152Z,19.70
2022-09-25T18:56:46.387Z,19.90
2022-09-25T18:59:18.247Z,20.00
2022-09-25T19:01:49.362Z,20.10
2022-09-25T19:04:22.211Z,20.20
2022-09-25T19:06:53.842Z,20.20
2022-09-25T19:09:28.699Z,20.20
2022-09-25T19:12:00.309Z,20.30
2022-09-25T19:14:32.162Z,20.40
2022-09-25T19:17:03.759Z,20.50
2022-09-25T19:19:36.499Z,20.60
2022-09-25T19:22:08.484Z,20.60
2022-09-25T19:24:42.960Z,20.80
2022-09-25T19:27:14.712Z,20.90
2022-09-25T19:29:48.635Z,21.00
2022-09-25T19:32:22.213Z,21.00
2022-09-25T19:34:55.671Z,21.10
2022-09-25T19:37:30.653Z,21.10
2022-09-25T19:40:22.079Z,21.10
2022-09-25T19:42:53.583Z,21.20
2022-09-25T19:45:24.990Z,21.30
2022-09-25T19:47:56.502Z,21.30
2022-09-25T19:50:28.403Z,21.40
2022-09-25T19:53:01.451Z,21.50
2022-09-25T19:55:38.821Z,21.60
2022-09-25T19:58:11.023Z,21.60
2022-09-25T20:00:44.398Z,21.90
2022-09-25T20:03:15.610Z,22.00
2022-09-25T20:05:51.735Z,22.00
2022-09-25T20:08:24.565Z,22.10
2022-09-25T20:10:59.016Z,22.10
2022-09-25T20:13:31.289Z,22.10
2022-09-25T20:16:13.489Z,22.20
2022-09-25T20:18:44.937Z,22.40
2022-09-25T20:21:19.267Z,22.60
2022-09-25T20:23:53.979Z,22.70
2022-09-25T20:26:29.315Z,22.70
2022-09-25T20:29:02.145Z,22.90
2022-09-25T20:31:35.240Z,23.00
2022-09-25T20:34:06.436Z,23.20
2022-09-25T20:36:40.883Z,23.30
2022-09-25T20:39:15.594Z,23.40
2022-09-25T20:41:51.415Z,23.50
2022-09-25T20:44:22.397Z,23.70
2022-09-25T20:46:53.410Z,23.80
2022-09-25T20:49:24.374Z,23.90
2022-09-25T20:51:56.508Z,24.00
2022-09-25T20:54:29.309Z,24.10
2022-09-25T20:57:03.767Z,24.20
2022-09-25T20:59:35.493Z,24.30
2022-09-25T21:02:06.872Z,24.50
2022-09-25T21:04:39.605Z,24.70
2022-09-25T21:07:15.879Z,24.80
2022-09-25T21:09:48.956Z,25.10
2022-09-25T21:12:23.682Z,25.20
2022-09-25T21:14:55.563Z,25.30
2022-09-25T21:17:26.679Z,25.50
2022-09-25T21:19:57.988Z,25.50
2022-09-25T21:22:29.101Z,25.70
2022-09-25T21:25:01.928Z,25.80
2022-09-25T21:27:36.245Z,25.90
2022-09-25T21:30:07.782Z,25.90
2022-09-25T21:32:40.124Z,26.10
2022-09-25T21:35:12.996Z,26.30
2022-09-25T21:37:45.176Z,26.30
2022-09-25T21:40:17.873Z,26.30
2022-09-25T21:42:52.518Z,26.40
2022-09-25T21:45:24.414Z,26.70
2022-09-25T21:47:56.080Z,26.90
2022-09-25T21:50:27.522Z,27.00
2022-09-25T21:52:58.667Z,27.20
2022-09-25T21:55:29.829Z,27.20
2022-09-25T21:58:06.575Z,27.20
2022-09-25T22:00:38.406Z,27.40
2022-09-25T22:03:12.834Z,27.50
2022-09-25T22:05:50.336Z,27.50
2022-09-25T22:08:25.577Z,27.50
2022-09-25T22:10:59.360Z,27.60
2022-09-25T22:13:35.868Z,27.70
2022-09-25T22:16:09.182Z,27.70
2022-09-25T22:18:46.010Z,27.90
2022-09-25T22:21:19.772Z,28.10
2022-09-25T22:23:53.250Z,28.20
2022-09-25T22:26:25.671Z,28.10
2022-09-25T22:29:00.014Z,28.30
2022-09-25T22:31:32.779Z,28.20
2022-09-25T22:34:07.392Z,28.40
2022-09-25T22:36:40.126Z,28.70
2022-09-25T22:39:12.119Z,28.90
2022-09-25T22:41:43.969Z,28.80
2022-09-25T22:44:18.112Z,28.80
2022-09-25T22:46:50.021Z,28.60
2022-09-25T22:49:22.669Z,28.40
2022-09-25T22:51:54.300Z,28.50
2022-09-25T22:54:26.412Z,28.80
2022-09-25T22:56:57.888Z,29.10
2022-09-25T22:59:32.044Z,29.10
2022-09-25T23:02:03.880Z,29.10
2022-09-25T23:04:35.820Z,29.10
2022-09-25T23:07:08.226Z,29.20
2022-09-25T23:09:39.437Z,29.10
2022-09-25T23:12:11.801Z,29.00
2022-09-25T23:14:49.292Z,28.90
2022-09-25T23:17:21.124Z,28.70
2022-09-25T23:19:52.747Z,28.50
2022-09-25T23:22:23.782Z,28.30
2022-09-25T23:24:56.585Z,28.20
2022-09-25T23:27:29.025Z,28.20
2022-09-25T23:30:02.964Z,28.00
2022-09-25T23:32:35.178Z,27.60
2022-09-25T23:35:08.603Z,27.50
2022-09-25T23:37:39.964Z,27.30
2022-09-25T23:40:16.132Z,27.20
2022-09-25T23:42:47.641Z,27.20
2022-09-25T23:45:24.096Z,27.20
2022-09-25T23:47:55.260Z,27.20
2022-09-25T23:50:27.262Z,27.10
2022-09-25T23:52:59.187Z,27.20
2022-09-25T23:55:31.105Z,27.20
2022-09-25T23:58:05.131Z,27.30
